<?xml version="1.0" encoding="UTF-8" standalone="no" ?>
<gpx xmlns="http://www.topografix.com/GPX/1/1" xmlns:xsi="http://www.w3.org/2001/XMLSchema-instance" xsi:schemaLocation="http://www.topografix.com/GPX/1/1 http://www.topografix.com/GPX/1/1/gpx.xsd" version="1.1" creator="VisuGPX - https://www.visugpx.com">
  <metadata>
    <name>Argentina</name>
    <desc><![CDATA[Downloaded from eMap Software Version 2.75]]></desc>
  </metadata>
  <trk>
    <name><![CDATA[Argentina_51]]></name>
    <extensions>
      <line xmlns="http://www.topografix.com/GPX/gpx_style/0/2">
        <color>ff0000</color>
        <opacity>0.78</opacity>
        <width>0.6000</width>
      </line>
    </extensions>
    <trkseg>
      <trkpt lat="-27.27079" lon="-61.21333">
        <ele>103.479004</ele>
        <time>2005-12-12T22:09:00Z</time>
      </trkpt>
      <trkpt lat="-27.26599" lon="-61.20919">
        <ele>103.479004</ele>
        <time>2005-12-12T22:09:25Z</time>
      </trkpt>
      <trkpt lat="-27.26444" lon="-61.20786">
        <ele>103.479004</ele>
        <time>2005-12-12T22:09:34Z</time>
      </trkpt>
      <trkpt lat="-27.26257" lon="-61.20627">
        <ele>103.479004</ele>
        <time>2005-12-12T22:09:48Z</time>
      </trkpt>
      <trkpt lat="-27.26034" lon="-61.20436">
        <ele>103.479004</ele>
        <time>2005-12-12T22:10:02Z</time>
      </trkpt>
      <trkpt lat="-27.25762" lon="-61.20207">
        <ele>103.959717</ele>
        <time>2005-12-12T22:10:17Z</time>
      </trkpt>
      <trkpt lat="-27.25298" lon="-61.19808">
        <ele>102.5177</ele>
        <time>2005-12-12T22:10:41Z</time>
      </trkpt>
      <trkpt lat="-27.24914" lon="-61.19481">
        <ele>102.998291</ele>
        <time>2005-12-12T22:11:01Z</time>
      </trkpt>
      <trkpt lat="-27.24687" lon="-61.19387">
        <ele>103.479004</ele>
        <time>2005-12-12T22:11:11Z</time>
      </trkpt>
      <trkpt lat="-27.24502" lon="-61.1932">
        <ele>103.479004</ele>
        <time>2005-12-12T22:11:19Z</time>
      </trkpt>
      <trkpt lat="-27.24281" lon="-61.19157">
        <ele>103.479004</ele>
        <time>2005-12-12T22:11:30Z</time>
      </trkpt>
      <trkpt lat="-27.23616" lon="-61.18582">
        <ele>103.959717</ele>
        <time>2005-12-12T22:12:05Z</time>
      </trkpt>
      <trkpt lat="-27.23296" lon="-61.18323">
        <ele>103.959717</ele>
        <time>2005-12-12T22:12:22Z</time>
      </trkpt>
      <trkpt lat="-27.23095" lon="-61.18157">
        <ele>103.959717</ele>
        <time>2005-12-12T22:12:34Z</time>
      </trkpt>
      <trkpt lat="-27.23009" lon="-61.18089">
        <ele>103.959717</ele>
        <time>2005-12-12T22:12:43Z</time>
      </trkpt>
    </trkseg>
  </trk>
</gpx>